sensor_id;sensor_type;location;lat;lon;timestamp;pressure;altitude;pressure_sealevel;temperature;humidity
21803;BME280;18591;47.080;22.214;2022-08-01T00:00:45;99263.53;;;22.15;61.74
21803;BME280;18591;47.080;22.214;2022-08-01T00:02:47;99267.97;;;22.16;61.76
21803;BME280;18591;47.080;22.214;2022-08-01T00:04:49;99258.19;;;22.14;62.00
21803;BME280;18591;47.080;22.214;2022-08-01T00:06:52;99262.66;;;22.15;62.07
21803;BME280;18591;47.080;22.214;2022-08-01T00:08:53;99271.59;;;22.17;62.31
21803;BME280;18591;47.080;22.214;2022-08-01T00:10:56;99272.75;;;22.14;62.42
21803;BME280;18591;47.080;22.214;2022-08-01T00:13:03;99267.28;;;22.14;62.54
21803;BME280;18591;47.080;22.214;2022-08-01T00:15:07;99278.34;;;22.13;62.79
21803;BME280;18591;47.080;22.214;2022-08-01T00:17:09;99272.16;;;22.11;62.82
21803;BME280;18591;47.080;22.214;2022-08-01T00:19:11;99271.97;;;22.03;63.29
21803;BME280;18591;47.080;22.214;2022-08-01T00:21:13;99269.97;;;22.05;63.29
21803;BME280;18591;47.080;22.214;2022-08-01T00:23:15;99270.56;;;22.08;63.45
21803;BME280;18591;47.080;22.214;2022-08-01T00:25:17;99272.44;;;22.08;63.24
21803;BME280;18591;47.080;22.214;2022-08-01T00:27:18;99272.88;;;22.13;62.64
21803;BME280;18591;47.080;22.214;2022-08-01T00:29:20;99274.47;;;22.15;62.80
21803;BME280;18591;47.080;22.214;2022-08-01T00:31:43;99273.44;;;22.16;62.38
21803;BME280;18591;47.080;22.214;2022-08-01T00:33:44;99272.75;;;22.14;62.72
21803;BME280;18591;47.080;22.214;2022-08-01T00:35:46;99271.88;;;22.14;62.43
21803;BME280;18591;47.080;22.214;2022-08-01T00:37:48;99274.47;;;22.15;62.09
21803;BME280;18591;47.080;22.214;2022-08-01T00:39:50;99275.50;;;22.14;62.50
21803;BME280;18591;47.080;22.214;2022-08-01T00:41:52;99274.47;;;22.15;62.71
21803;BME280;18591;47.080;22.214;2022-08-01T00:44:04;99273.16;;;22.10;63.24
21803;BME280;18591;47.080;22.214;2022-08-01T00:46:06;99273.91;;;22.12;62.69
21803;BME280;18591;47.080;22.214;2022-08-01T00:48:08;99279.94;;;22.15;62.52
21803;BME280;18591;47.080;22.214;2022-08-01T00:50:11;99274.47;;;22.15;62.93
21803;BME280;18591;47.080;22.214;2022-08-01T00:52:13;99278.47;;;22.11;63.11
21803;BME280;18591;47.080;22.214;2022-08-01T00:54:15;99271.88;;;22.14;62.81
21803;BME280;18591;47.080;22.214;2022-08-01T00:56:19;99269.13;;;22.14;63.05
21803;BME280;18591;47.080;22.214;2022-08-01T00:58:21;99271.28;;;22.10;62.95
21803;BME280;18591;47.080;22.214;2022-08-01T01:00:25;99275.91;;;22.10;63.35
21803;BME280;18591;47.080;22.214;2022-08-01T01:02:28;99271.28;;;22.10;63.58
21803;BME280;18591;47.080;22.214;2022-08-01T01:04:29;99268.25;;;22.13;63.13
21803;BME280;18591;47.080;22.214;2022-08-01T01:09:01;99270.88;;;22.15;62.80
21803;BME280;18591;47.080;22.214;2022-08-01T01:11:10;99273.91;;;22.12;63.82
21803;BME280;18591;47.080;22.214;2022-08-01T01:15:33;99272.59;;;22.16;63.93
21803;BME280;18591;47.080;22.214;2022-08-01T01:18:03;99271.41;;;22.09;64.16
21803;BME280;18591;47.080;22.214;2022-08-01T01:20:05;99267.41;;;22.13;63.27
21803;BME280;18591;47.080;22.214;2022-08-01T01:27:06;99274.03;;;22.10;63.55
21803;BME280;18591;47.080;22.214;2022-08-01T01:29:28;99271.56;;;22.07;64.25
21803;BME280;18591;47.080;22.214;2022-08-01T01:31:59;99274.16;;;22.09;63.32
21803;BME280;18591;47.080;22.214;2022-08-01T01:34:05;99275.63;;;22.13;63.10
21803;BME280;18591;47.080;22.214;2022-08-01T01:36:09;99275.75;;;22.11;63.59
21803;BME280;18591;47.080;22.214;2022-08-01T01:38:25;99274.88;;;22.11;64.59
21803;BME280;18591;47.080;22.214;2022-08-01T01:40:30;99277.16;;;22.06;63.89
21803;BME280;18591;47.080;22.214;2022-08-01T01:42:33;99280.06;;;22.14;64.13
21803;BME280;18591;47.080;22.214;2022-08-01T01:44:36;99280.97;;;22.14;63.82
21803;BME280;18591;47.080;22.214;2022-08-01T01:46:41;99278.94;;;22.16;63.71
21803;BME280;18591;47.080;22.214;2022-08-01T01:48:44;99271.59;;;22.17;63.77
21803;BME280;18591;47.080;22.214;2022-08-01T01:50:49;99282.81;;;22.14;64.45
21803;BME280;18591;47.080;22.214;2022-08-01T01:52:53;99270.00;;;22.14;64.48
21803;BME280;18591;47.080;22.214;2022-08-01T01:54:56;99272.03;;;22.12;64.59
21803;BME280;18591;47.080;22.214;2022-08-01T01:57:02;99274.16;;;22.09;65.10
21803;BME280;18591;47.080;22.214;2022-08-01T01:59:05;99281.09;;;22.13;64.74
21803;BME280;18591;47.080;22.214;2022-08-01T02:01:08;99276.19;;;22.07;64.91
21803;BME280;18591;47.080;22.214;2022-08-01T02:03:16;99280.50;;;22.09;64.90
21803;BME280;18591;47.080;22.214;2022-08-01T02:05:19;99279.50;;;22.10;64.79
21803;BME280;18591;47.080;22.214;2022-08-01T02:07:24;99280.34;;;22.11;65.39
21803;BME280;18591;47.080;22.214;2022-08-01T02:09:29;99283.25;;;22.09;64.90
21803;BME280;18591;47.080;22.214;2022-08-01T02:11:33;99286.97;;;22.08;64.94
21803;BME280;18591;47.080;22.214;2022-08-01T02:13:38;99280.34;;;22.11;65.28
21803;BME280;18591;47.080;22.214;2022-08-01T02:15:40;99281.94;;;22.13;65.21
21803;BME280;18591;47.080;22.214;2022-08-01T02:18:01;99279.03;;;22.05;65.47
21803;BME280;18591;47.080;22.214;2022-08-01T02:20:04;99276.31;;;22.05;65.21
21803;BME280;18591;47.080;22.214;2022-08-01T02:22:29;99278.19;;;22.05;65.76
21803;BME280;18591;47.080;22.214;2022-08-01T02:26:42;99280.34;;;22.11;64.92
21803;BME280;18591;47.080;22.214;2022-08-01T02:28:50;99275.44;;;22.05;66.03
21803;BME280;18591;47.080;22.214;2022-08-01T02:30:59;99280.59;;;21.98;66.64
21803;BME280;18591;47.080;22.214;2022-08-01T02:33:15;99275.81;;;21.90;66.60
21803;BME280;18591;47.080;22.214;2022-08-01T02:35:37;99277.00;;;21.98;66.65
21803;BME280;18591;47.080;22.214;2022-08-01T02:38:03;99279.84;;;21.86;66.87
21803;BME280;18591;47.080;22.214;2022-08-01T02:40:07;99277.81;;;21.88;66.55
21803;BME280;18591;47.080;22.214;2022-08-01T02:42:16;99280.13;;;21.93;66.28
21803;BME280;18591;47.080;22.214;2022-08-01T02:44:24;99274.81;;;21.91;67.11
21803;BME280;18591;47.080;22.214;2022-08-01T02:46:36;99276.81;;;21.89;66.93
21803;BME280;18591;47.080;22.214;2022-08-01T02:48:38;99283.59;;;21.95;66.52
21803;BME280;18591;47.080;22.214;2022-08-01T02:50:44;99284.47;;;21.95;66.57
21803;BME280;18591;47.080;22.214;2022-08-01T02:52:50;99286.22;;;21.96;67.23
21803;BME280;18591;47.080;22.214;2022-08-01T02:54:55;99284.88;;;21.91;66.96
21803;BME280;18591;47.080;22.214;2022-08-01T02:56:58;99287.19;;;21.95;66.98
21803;BME280;18591;47.080;22.214;2022-08-01T02:59:08;99284.00;;;21.90;66.58
21803;BME280;18591;47.080;22.214;2022-08-01T03:01:11;99288.34;;;21.93;66.71
21803;BME280;18591;47.080;22.214;2022-08-01T03:03:15;99288.50;;;21.91;66.91
21803;BME280;18591;47.080;22.214;2022-08-01T03:05:18;99284.75;;;21.92;66.82
21803;BME280;18591;47.080;22.214;2022-08-01T03:07:20;99293.06;;;21.91;66.70
21803;BME280;18591;47.080;22.214;2022-08-01T03:09:23;99288.63;;;21.90;66.99
21803;BME280;18591;47.080;22.214;2022-08-01T03:11:26;99293.50;;;21.86;67.09
21803;BME280;18591;47.080;22.214;2022-08-01T03:13:31;99287.75;;;21.89;66.98
21803;BME280;18591;47.080;22.214;2022-08-01T03:15:36;99283.28;;;21.88;66.87
21803;BME280;18591;47.080;22.214;2022-08-01T03:17:41;99288.16;;;21.85;67.17
21803;BME280;18591;47.080;22.214;2022-08-01T03:19:45;99288.03;;;21.86;66.74
21803;BME280;18591;47.080;22.214;2022-08-01T03:21:50;99287.31;;;21.84;67.33
21803;BME280;18591;47.080;22.214;2022-08-01T03:23:55;99284.56;;;21.84;66.98
21803;BME280;18591;47.080;22.214;2022-08-01T03:26:00;99291.91;;;21.84;67.22
21803;BME280;18591;47.080;22.214;2022-08-01T03:28:06;99289.19;;;21.84;66.98
21803;BME280;18591;47.080;22.214;2022-08-01T03:30:08;99289.88;;;21.86;67.07
21803;BME280;18591;47.080;22.214;2022-08-01T03:32:12;99296.66;;;21.82;67.07
21803;BME280;18591;47.080;22.214;2022-08-01T03:34:16;99291.03;;;21.83;67.22
21803;BME280;18591;47.080;22.214;2022-08-01T03:36:21;99290.31;;;21.81;67.04
21803;BME280;18591;47.080;22.214;2022-08-01T03:38:26;99302.13;;;21.82;66.80
21803;BME280;18591;47.080;22.214;2022-08-01T03:40:34;99289.59;;;21.79;67.02
21803;BME280;18591;47.080;22.214;2022-08-01T03:42:41;99301.66;;;21.77;67.38
21803;BME280;18591;47.080;22.214;2022-08-01T03:44:54;99300.34;;;21.71;67.39
21803;BME280;18591;47.080;22.214;2022-08-01T03:47:05;99300.59;;;21.68;67.84
21803;BME280;18591;47.080;22.214;2022-08-01T03:49:12;99303.94;;;21.71;67.78
21803;BME280;18591;47.080;22.214;2022-08-01T03:51:17;99305.66;;;21.72;67.70
21803;BME280;18591;47.080;22.214;2022-08-01T03:53:25;99309.78;;;21.67;67.93
21803;BME280;18591;47.080;22.214;2022-08-01T03:55:30;99308.66;;;21.69;67.29
21803;BME280;18591;47.080;22.214;2022-08-01T03:57:35;99308.94;;;21.66;68.35
21803;BME280;18591;47.080;22.214;2022-08-01T03:59:37;99314.13;;;21.69;67.94
21803;BME280;18591;47.080;22.214;2022-08-01T04:01:40;99311.28;;;21.71;67.61
21803;BME280;18591;47.080;22.214;2022-08-01T04:03:43;99315.00;;;21.70;67.46
21803;BME280;18591;47.080;22.214;2022-08-01T04:05:45;99316.97;;;21.68;67.54
21803;BME280;18591;47.080;22.214;2022-08-01T04:07:49;99310.81;;;21.66;67.77
21803;BME280;18591;47.080;22.214;2022-08-01T04:09:58;99319.00;;;21.66;67.90
21803;BME280;18591;47.080;22.214;2022-08-01T04:12:00;99316.13;;;21.67;67.47
21803;BME280;18591;47.080;22.214;2022-08-01T04:14:12;99315.25;;;21.67;67.81
21803;BME280;18591;47.080;22.214;2022-08-01T04:16:14;99316.13;;;21.67;67.75
21803;BME280;18591;47.080;22.214;2022-08-01T04:18:16;99315.00;;;21.70;67.81
21803;BME280;18591;47.080;22.214;2022-08-01T04:20:18;99322.44;;;21.68;68.00
21803;BME280;18591;47.080;22.214;2022-08-01T04:22:20;99316.13;;;21.67;67.88
21803;BME280;18591;47.080;22.214;2022-08-01T04:24:23;99316.00;;;21.69;67.66
21803;BME280;18591;47.080;22.214;2022-08-01T04:26:27;99310.38;;;21.70;67.67
21803;BME280;18591;47.080;22.214;2022-08-01T04:28:31;99313.38;;;21.67;67.51
21803;BME280;18591;47.080;22.214;2022-08-01T04:30:37;99317.88;;;21.68;67.41
21803;BME280;18591;47.080;22.214;2022-08-01T04:32:40;99314.88;;;21.71;67.57
21803;BME280;18591;47.080;22.214;2022-08-01T04:34:46;99315.84;;;21.70;67.59
21803;BME280;18591;47.080;22.214;2022-08-01T04:36:50;99313.84;;;21.72;67.59
21803;BME280;18591;47.080;22.214;2022-08-01T04:38:57;99315.16;;;21.68;67.96
21803;BME280;18591;47.080;22.214;2022-08-01T04:40:59;99318.59;;;21.70;67.64
21803;BME280;18591;47.080;22.214;2022-08-01T04:43:10;99316.88;;;21.69;68.01
21803;BME280;18591;47.080;22.214;2022-08-01T04:45:15;99314.13;;;21.69;67.90
21803;BME280;18591;47.080;22.214;2022-08-01T04:47:18;99309.41;;;21.71;67.71
21803;BME280;18591;47.080;22.214;2022-08-01T04:49:21;99317.44;;;21.73;67.81
21803;BME280;18591;47.080;22.214;2022-08-01T04:51:23;99310.06;;;21.64;67.80
21803;BME280;18591;47.080;22.214;2022-08-01T04:53:25;99313.13;;;21.70;67.68
21803;BME280;18591;47.080;22.214;2022-08-01T04:55:28;99318.06;;;21.77;67.14
21803;BME280;18591;47.080;22.214;2022-08-01T04:57:30;99308.84;;;21.78;67.46
21803;BME280;18591;47.080;22.214;2022-08-01T04:59:35;99313.47;;;21.77;67.41
21803;BME280;18591;47.080;22.214;2022-08-01T05:01:41;99310.44;;;21.80;67.43
21803;BME280;18591;47.080;22.214;2022-08-01T05:03:43;99304.00;;;21.81;66.99
21803;BME280;18591;47.080;22.214;2022-08-01T05:05:45;99303.84;;;21.83;66.73
21803;BME280;18591;47.080;22.214;2022-08-01T05:07:47;99308.31;;;21.84;66.73
21803;BME280;18591;47.080;22.214;2022-08-01T05:09:49;99298.25;;;21.84;66.73
21803;BME280;18591;47.080;22.214;2022-08-01T05:11:52;99303.56;;;21.86;66.55
21803;BME280;18591;47.080;22.214;2022-08-01T05:13:54;99306.56;;;21.83;66.92
21803;BME280;18591;47.080;22.214;2022-08-01T05:15:56;99305.31;;;21.87;66.66
21803;BME280;18591;47.080;22.214;2022-08-01T05:17:57;99302.69;;;21.85;66.91
21803;BME280;18591;47.080;22.214;2022-08-01T05:19:59;99300.97;;;21.84;67.06
21803;BME280;18591;47.080;22.214;2022-08-01T05:22:02;99301.72;;;21.86;66.93
21803;BME280;18591;47.080;22.214;2022-08-01T05:24:06;99298.25;;;21.84;66.85
21803;BME280;18591;47.080;22.214;2022-08-01T05:26:10;99310.50;;;21.90;66.68
21803;BME280;18591;47.080;22.214;2022-08-01T05:28:15;99305.16;;;21.88;66.74
21803;BME280;18591;47.080;22.214;2022-08-01T05:30:20;99305.88;;;21.90;67.04
21803;BME280;18591;47.080;22.214;2022-08-01T05:32:21;99307.63;;;21.91;66.97
21803;BME280;18591;47.080;22.214;2022-08-01T05:34:24;99304.75;;;21.93;66.72
21803;BME280;18591;47.080;22.214;2022-08-01T05:36:26;99314.44;;;21.97;67.00
21803;BME280;18591;47.080;22.214;2022-08-01T05:38:28;99317.84;;;21.89;67.23
21803;BME280;18591;47.080;22.214;2022-08-01T05:40:29;99312.59;;;21.77;67.64
21803;BME280;18591;47.080;22.214;2022-08-01T05:42:32;99311.59;;;21.78;67.42
21803;BME280;18591;47.080;22.214;2022-08-01T05:44:34;99318.66;;;21.80;67.27
21803;BME280;18591;47.080;22.214;2022-08-01T05:46:36;99317.97;;;21.88;66.86
21803;BME280;18591;47.080;22.214;2022-08-01T05:48:38;99322.28;;;21.90;66.75
21803;BME280;18591;47.080;22.214;2022-08-01T05:50:40;99326.78;;;21.91;66.75
21803;BME280;18591;47.080;22.214;2022-08-01T05:52:42;99317.00;;;21.99;66.65
21803;BME280;18591;47.080;22.214;2022-08-01T05:54:44;99322.47;;;21.99;66.16
21803;BME280;18591;47.080;22.214;2022-08-01T05:56:46;99321.78;;;21.96;66.16
21803;BME280;18591;47.080;22.214;2022-08-01T05:58:49;99330.56;;;22.00;65.70
21803;BME280;18591;47.080;22.214;2022-08-01T06:00:52;99329.97;;;21.96;65.83
21803;BME280;18591;47.080;22.214;2022-08-01T06:02:53;99331.41;;;22.01;65.52
21803;BME280;18591;47.080;22.214;2022-08-01T06:04:55;99325.53;;;22.05;65.71
21803;BME280;18591;47.080;22.214;2022-08-01T06:06:58;99332.28;;;22.01;66.00
21803;BME280;18591;47.080;22.214;2022-08-01T06:09:00;99327.69;;;22.02;66.40
21803;BME280;18591;47.080;22.214;2022-08-01T06:11:02;99332.72;;;21.96;66.83
21803;BME280;18591;47.080;22.214;2022-08-01T06:13:04;99328.38;;;21.94;66.71
21803;BME280;18591;47.080;22.214;2022-08-01T06:15:07;99327.25;;;21.96;66.91
21803;BME280;18591;47.080;22.214;2022-08-01T06:17:09;99335.69;;;21.93;67.41
21803;BME280;18591;47.080;22.214;2022-08-01T06:19:11;99322.94;;;22.04;66.99
21803;BME280;18591;47.080;22.214;2022-08-01T06:21:12;99327.88;;;22.10;67.18
21803;BME280;18591;47.080;22.214;2022-08-01T06:23:15;99333.47;;;22.08;66.90
21803;BME280;18591;47.080;22.214;2022-08-01T06:25:33;99333.88;;;22.04;67.37
21803;BME280;18591;47.080;22.214;2022-08-01T06:27:35;99340.13;;;22.15;66.69
21803;BME280;18591;47.080;22.214;2022-08-01T06:29:37;99342.59;;;22.18;66.98
21803;BME280;18591;47.080;22.214;2022-08-01T06:31:51;99340.50;;;22.22;66.78
21803;BME280;18591;47.080;22.214;2022-08-01T06:33:53;99343.34;;;22.21;66.84
21803;BME280;18591;47.080;22.214;2022-08-01T06:35:55;99342.22;;;22.23;66.86
21803;BME280;18591;47.080;22.214;2022-08-01T06:37:57;99346.53;;;22.26;66.72
21803;BME280;18591;47.080;22.214;2022-08-01T06:40:09;99347.84;;;22.31;67.04
21803;BME280;18591;47.080;22.214;2022-08-01T06:42:17;99340.38;;;22.33;66.47
21803;BME280;18591;47.080;22.214;2022-08-01T06:44:19;99356.97;;;22.42;66.40
21803;BME280;18591;47.080;22.214;2022-08-01T06:46:21;99354.97;;;22.44;66.22
21803;BME280;18591;47.080;22.214;2022-08-01T06:48:23;99353.53;;;22.49;65.90
21803;BME280;18591;47.080;22.214;2022-08-01T06:50:25;99351.13;;;22.56;65.84
21803;BME280;18591;47.080;22.214;2022-08-01T06:52:27;99352.41;;;22.52;65.57
21803;BME280;18591;47.080;22.214;2022-08-01T06:54:29;99360.47;;;22.53;65.40
21803;BME280;18591;47.080;22.214;2022-08-01T06:56:31;99357.00;;;22.51;65.97
21803;BME280;18591;47.080;22.214;2022-08-01T06:58:33;99349.97;;;22.58;65.68
21803;BME280;18591;47.080;22.214;2022-08-01T07:00:36;99350.97;;;22.57;66.02
21803;BME280;18591;47.080;22.214;2022-08-01T07:02:38;99363.66;;;22.58;66.05
21803;BME280;18591;47.080;22.214;2022-08-01T07:04:40;99353.56;;;22.59;66.16
21803;BME280;18591;47.080;22.214;2022-08-01T07:06:42;99361.63;;;22.60;66.03
21803;BME280;18591;47.080;22.214;2022-08-01T07:08:44;99356.88;;;22.63;66.29
21803;BME280;18591;47.080;22.214;2022-08-01T07:10:46;99368.28;;;22.68;66.06
21803;BME280;18591;47.080;22.214;2022-08-01T07:12:48;99365.41;;;22.69;66.34
21803;BME280;18591;47.080;22.214;2022-08-01T07:14:50;99359.94;;;22.69;66.23
21803;BME280;18591;47.080;22.214;2022-08-01T07:16:51;99364.72;;;22.77;66.26
21803;BME280;18591;47.080;22.214;2022-08-01T07:18:53;99367.91;;;22.82;65.87
21803;BME280;18591;47.080;22.214;2022-08-01T07:20:55;99363.00;;;22.86;65.99
21803;BME280;18591;47.080;22.214;2022-08-01T07:22:57;99363.72;;;22.88;65.97
21803;BME280;18591;47.080;22.214;2022-08-01T07:25:00;99367.03;;;22.91;65.87
21803;BME280;18591;47.080;22.214;2022-08-01T07:27:02;99365.66;;;22.97;66.04
21803;BME280;18591;47.080;22.214;2022-08-01T07:29:25;99369.53;;;23.04;65.88
21803;BME280;18591;47.080;22.214;2022-08-01T07:31:27;99375.59;;;22.98;66.36
21803;BME280;18591;47.080;22.214;2022-08-01T07:33:33;99369.28;;;23.07;65.91
21803;BME280;18591;47.080;22.214;2022-08-01T07:35:49;99366.38;;;23.09;66.07
21803;BME280;18591;47.080;22.214;2022-08-01T07:37:51;99374.31;;;23.12;65.73
21803;BME280;18591;47.080;22.214;2022-08-01T07:39:54;99375.75;;;23.16;65.77
21803;BME280;18591;47.080;22.214;2022-08-01T07:41:56;99372.16;;;23.15;65.35
21803;BME280;18591;47.080;22.214;2022-08-01T07:44:08;99367.13;;;23.20;65.00
21803;BME280;18591;47.080;22.214;2022-08-01T07:46:10;99378.09;;;23.20;65.03
21803;BME280;18591;47.080;22.214;2022-08-01T07:48:12;99372.91;;;23.17;65.34
21803;BME280;18591;47.080;22.214;2022-08-01T07:50:14;99376.63;;;23.16;65.50
21803;BME280;18591;47.080;22.214;2022-08-01T07:52:16;99376.06;;;23.22;65.48
21803;BME280;18591;47.080;22.214;2022-08-01T07:54:18;99378.34;;;23.27;65.40
21803;BME280;18591;47.080;22.214;2022-08-01T07:56:33;99378.94;;;23.31;65.22
21803;BME280;18591;47.080;22.214;2022-08-01T07:58:35;99386.00;;;23.23;64.90
21803;BME280;18591;47.080;22.214;2022-08-01T08:00:37;99389.47;;;23.25;65.11
21803;BME280;18591;47.080;22.214;2022-08-01T08:02:39;99388.34;;;23.28;64.62
21803;BME280;18591;47.080;22.214;2022-08-01T08:04:41;99385.28;;;23.31;64.88
21803;BME280;18591;47.080;22.214;2022-08-01T08:06:49;99388.47;;;23.26;64.59
21803;BME280;18591;47.080;22.214;2022-08-01T08:08:51;99383.41;;;23.32;64.61
21803;BME280;18591;47.080;22.214;2022-08-01T08:10:55;99390.78;;;23.31;64.74
21803;BME280;18591;47.080;22.214;2022-08-01T08:12:57;99393.66;;;23.30;64.85
21803;BME280;18591;47.080;22.214;2022-08-01T08:14:59;99385.72;;;23.36;64.75
21803;BME280;18591;47.080;22.214;2022-08-01T08:17:03;99389.75;;;23.42;64.66
21803;BME280;18591;47.080;22.214;2022-08-01T08:19:05;99384.44;;;23.40;64.55
21803;BME280;18591;47.080;22.214;2022-08-01T08:21:07;99383.44;;;23.41;64.24
21803;BME280;18591;47.080;22.214;2022-08-01T08:23:09;99391.34;;;23.44;64.68
21803;BME280;18591;47.080;22.214;2022-08-01T08:25:44;99387.31;;;23.48;64.54
21803;BME280;18591;47.080;22.214;2022-08-01T08:27:46;99395.53;;;23.48;64.40
21803;BME280;18591;47.080;22.214;2022-08-01T08:29:48;99385.75;;;23.56;63.74
21803;BME280;18591;47.080;22.214;2022-08-01T08:31:50;99393.06;;;23.55;63.95
21803;BME280;18591;47.080;22.214;2022-08-01T08:33:53;99395.97;;;23.54;63.99
21803;BME280;18591;47.080;22.214;2022-08-01T08:35:56;99398.84;;;23.52;63.95
21803;BME280;18591;47.080;22.214;2022-08-01T08:37:57;99401.91;;;23.49;64.08
21803;BME280;18591;47.080;22.214;2022-08-01T08:40:00;99405.06;;;23.44;64.41
21803;BME280;18591;47.080;22.214;2022-08-01T08:42:06;99400.00;;;23.50;63.97
21803;BME280;18591;47.080;22.214;2022-08-01T08:44:09;99408.22;;;23.50;64.30
21803;BME280;18591;47.080;22.214;2022-08-01T08:46:13;99399.44;;;23.46;64.25
21803;BME280;18591;47.080;22.214;2022-08-01T08:48:16;99403.34;;;23.43;64.17
21803;BME280;18591;47.080;22.214;2022-08-01T08:50:20;99403.78;;;23.39;64.70
21803;BME280;18591;47.080;22.214;2022-08-01T08:52:22;99402.75;;;23.40;64.50
21803;BME280;18591;47.080;22.214;2022-08-01T08:54:25;99400.28;;;23.37;64.77
21803;BME280;18591;47.080;22.214;2022-08-01T08:56:34;99408.53;;;23.37;65.07
21803;BME280;18591;47.080;22.214;2022-08-01T08:58:37;99405.78;;;23.37;64.86
21803;BME280;18591;47.080;22.214;2022-08-01T09:00:40;99405.94;;;23.35;64.96
21803;BME280;18591;47.080;22.214;2022-08-01T09:02:43;99409.53;;;23.36;64.50
21803;BME280;18591;47.080;22.214;2022-08-01T09:04:48;99399.31;;;23.38;64.39
21803;BME280;18591;47.080;22.214;2022-08-01T09:06:51;99407.66;;;23.36;64.63
21803;BME280;18591;47.080;22.214;2022-08-01T09:08:53;99404.63;;;23.39;64.30
21803;BME280;18591;47.080;22.214;2022-08-01T09:10:55;99413.44;;;23.43;64.22
21803;BME280;18591;47.080;22.214;2022-08-01T09:13:06;99411.84;;;23.40;63.89
21803;BME280;18591;47.080;22.214;2022-08-01T09:15:12;99408.81;;;23.43;63.84
21803;BME280;18591;47.080;22.214;2022-08-01T09:17:13;99409.97;;;23.41;63.82
21803;BME280;18591;47.080;22.214;2022-08-01T09:19:18;99411.56;;;23.43;63.92
21803;BME280;18591;47.080;22.214;2022-08-01T09:21:56;99418.34;;;23.39;63.68
21803;BME280;18591;47.080;22.214;2022-08-01T09:23:58;99414.88;;;23.47;63.57
21803;BME280;18591;47.080;22.214;2022-08-01T09:26:04;99413.00;;;23.38;63.23
21803;BME280;18591;47.080;22.214;2022-08-01T09:28:06;99414.59;;;23.31;63.32
21803;BME280;18591;47.080;22.214;2022-08-01T09:30:17;99412.25;;;23.16;63.60
21803;BME280;18591;47.080;22.214;2022-08-01T09:32:26;99414.28;;;23.24;63.74
21803;BME280;18591;47.080;22.214;2022-08-01T09:34:35;99417.88;;;23.24;63.47
21803;BME280;18591;47.080;22.214;2022-08-01T09:38:51;99418.31;;;23.30;63.18
21803;BME280;18591;47.080;22.214;2022-08-01T09:43:11;99427.84;;;23.16;63.29
21803;BME280;18591;47.080;22.214;2022-08-01T09:45:33;99422.78;;;23.21;63.76
21803;BME280;18591;47.080;22.214;2022-08-01T09:47:44;99419.91;;;23.22;63.60
21803;BME280;18591;47.080;22.214;2022-08-01T09:49:55;99420.47;;;23.16;63.66
21803;BME280;18591;47.080;22.214;2022-08-01T09:52:13;99418.75;;;23.15;63.94
21803;BME280;18591;47.080;22.214;2022-08-01T09:54:28;99426.09;;;23.24;63.64
21803;BME280;18591;47.080;22.214;2022-08-01T09:56:42;99425.38;;;23.32;63.34
21803;BME280;18591;47.080;22.214;2022-08-01T09:58:56;99421.06;;;23.30;63.27
21803;BME280;18591;47.080;22.214;2022-08-01T10:01:01;99431.59;;;23.34;63.14
21803;BME280;18591;47.080;22.214;2022-08-01T10:03:26;99421.50;;;23.35;62.86
21803;BME280;18591;47.080;22.214;2022-08-01T10:05:34;99422.53;;;23.43;63.08
21803;BME280;18591;47.080;22.214;2022-08-01T10:08:01;99422.53;;;23.43;63.93
21803;BME280;18591;47.080;22.214;2022-08-01T10:10:13;99421.22;;;23.47;63.40
21803;BME280;18591;47.080;22.214;2022-08-01T10:12:20;99427.00;;;23.54;63.10
21803;BME280;18591;47.080;22.214;2022-08-01T10:14:24;99424.69;;;23.59;63.27
21803;BME280;18591;47.080;22.214;2022-08-01T10:16:27;99428.84;;;23.63;62.89
21803;BME280;18591;47.080;22.214;2022-08-01T10:18:32;99424.69;;;23.69;61.93
21803;BME280;18591;47.080;22.214;2022-08-01T10:20:34;99425.38;;;23.71;61.84
21803;BME280;18591;47.080;22.214;2022-08-01T10:22:38;99433.38;;;23.74;62.07
21803;BME280;18591;47.080;22.214;2022-08-01T10:24:43;99428.59;;;23.76;60.79
21803;BME280;18591;47.080;22.214;2022-08-01T10:26:51;99432.66;;;23.72;60.32
21803;BME280;18591;47.080;22.214;2022-08-01T10:28:54;99432.78;;;23.80;60.76
21803;BME280;18591;47.080;22.214;2022-08-01T10:30:57;99432.19;;;23.86;60.72
21803;BME280;18591;47.080;22.214;2022-08-01T10:33:00;99428.47;;;23.87;60.82
21803;BME280;18591;47.080;22.214;2022-08-01T10:35:07;99431.03;;;23.89;61.06
21803;BME280;18591;47.080;22.214;2022-08-01T10:37:15;99434.22;;;23.94;60.61
21803;BME280;18591;47.080;22.214;2022-08-01T10:39:19;99435.09;;;23.95;60.61
21803;BME280;18591;47.080;22.214;2022-08-01T10:41:23;99434.19;;;24.04;59.62
21803;BME280;18591;47.080;22.214;2022-08-01T10:43:27;99424.97;;;24.05;60.05
21803;BME280;18591;47.080;22.214;2022-08-01T10:45:33;99428.41;;;24.07;60.12
21803;BME280;18591;47.080;22.214;2022-08-01T10:47:49;99421.94;;;24.08;59.54
21803;BME280;18591;47.080;22.214;2022-08-01T10:50:03;99423.66;;;24.09;59.74
21803;BME280;18591;47.080;22.214;2022-08-01T10:52:05;99423.50;;;24.10;59.85
21803;BME280;18591;47.080;22.214;2022-08-01T10:54:10;99423.34;;;24.12;59.33
21803;BME280;18591;47.080;22.214;2022-08-01T10:56:12;99425.50;;;24.18;59.03
21803;BME280;18591;47.080;22.214;2022-08-01T10:58:26;99419.59;;;24.13;57.53
21803;BME280;18591;47.080;22.214;2022-08-01T11:00:28;99421.59;;;24.21;58.81
21803;BME280;18591;47.080;22.214;2022-08-01T11:02:32;99412.94;;;24.16;58.55
21803;BME280;18591;47.080;22.214;2022-08-01T11:05:28;99417.72;;;24.13;57.80
21803;BME280;18591;47.080;22.214;2022-08-01T11:07:22;99422.91;;;24.17;57.37
21803;BME280;18591;47.080;22.214;2022-08-01T11:09:30;99415.81;;;24.24;57.83
21803;BME280;18591;47.080;22.214;2022-08-01T11:14:05;99414.50;;;24.28;56.97